地図

経路データ

SID SEASON NUMBER BASIN SUBBASIN NAME ISO_TIME NATURE LAT LON WMO_WIND WMO_PRES WMO_AGENCY TRACK_TYPE DIST2LAND LANDFALL IFLAG USA_AGENCY USA_ATCF_ID USA_LAT USA_LON USA_RECORD USA_STATUS USA_WIND USA_PRES USA_SSHS USA_R34_NE USA_R34_SE USA_R34_SW USA_R34_NW USA_R50_NE USA_R50_SE USA_R50_SW USA_R50_NW USA_R64_NE USA_R64_SE USA_R64_SW USA_R64_NW USA_POCI USA_ROCI USA_RMW USA_EYE TOKYO_LAT TOKYO_LON TOKYO_GRADE TOKYO_WIND TOKYO_PRES TOKYO_R50_DIR TOKYO_R50_LONG TOKYO_R50_SHORT TOKYO_R30_DIR TOKYO_R30_LONG TOKYO_R30_SHORT TOKYO_LAND CMA_LAT CMA_LON CMA_CAT CMA_WIND CMA_PRES HKO_LAT HKO_LON HKO_CAT HKO_WIND HKO_PRES NEWDELHI_LAT NEWDELHI_LON NEWDELHI_GRADE NEWDELHI_WIND NEWDELHI_PRES NEWDELHI_CI NEWDELHI_DP NEWDELHI_POCI REUNION_LAT REUNION_LON REUNION_TYPE REUNION_WIND REUNION_PRES REUNION_TNUM REUNION_CI REUNION_RMW REUNION_R34_NE REUNION_R34_SE REUNION_R34_SW REUNION_R34_NW REUNION_R50_NE REUNION_R50_SE REUNION_R50_SW REUNION_R50_NW REUNION_R64_NE REUNION_R64_SE REUNION_R64_SW REUNION_R64_NW BOM_LAT BOM_LON BOM_TYPE BOM_WIND BOM_PRES BOM_TNUM BOM_CI BOM_RMW BOM_R34_NE BOM_R34_SE BOM_R34_SW BOM_R34_NW BOM_R50_NE BOM_R50_SE BOM_R50_SW BOM_R50_NW BOM_R64_NE BOM_R64_SE BOM_R64_SW BOM_R64_NW BOM_ROCI BOM_POCI BOM_EYE BOM_POS_METHOD BOM_PRES_METHOD NADI_LAT NADI_LON NADI_CAT NADI_WIND NADI_PRES WELLINGTON_LAT WELLINGTON_LON WELLINGTON_WIND WELLINGTON_PRES DS824_LAT DS824_LON DS824_STAGE DS824_WIND DS824_PRES TD9636_LAT TD9636_LON TD9636_STAGE TD9636_WIND TD9636_PRES TD9635_LAT TD9635_LON TD9635_WIND TD9635_PRES TD9635_ROCI NEUMANN_LAT NEUMANN_LON NEUMANN_CLASS NEUMANN_WIND NEUMANN_PRES MLC_LAT MLC_LON MLC_CLASS MLC_WIND MLC_PRES USA_GUST BOM_GUST BOM_GUST_PER REUNION_GUST REUNION_GUST_PER USA_SEAHGT USA_SEARAD_NE USA_SEARAD_SE USA_SEARAD_SW USA_SEARAD_NW STORM_SPEED STORM_DIR
1993221N13256 1993 50 EP MM FERNANDA 1993-08-09 06:00:00 TS 13.2000 -104.000 25 1008 hurdat_epa main 554 554 O_____________ hurdat_epa EP071993 13.2000 -104.000 TD 25 1008 -1 18 276
1993221N13256 1993 50 EP MM FERNANDA 1993-08-09 09:00:00 TS 13.2908 -104.922 main 577 577 P_____________ EP071993 13.2908 -104.922 TD 27 1007 -1 18 277
1993221N13256 1993 50 EP MM FERNANDA 1993-08-09 12:00:00 TS 13.4000 -105.800 30 1007 hurdat_epa main 601 601 O_____________ hurdat_epa EP071993 13.4000 -105.800 TD 30 1007 -1 17 279
1993221N13256 1993 50 EP MM FERNANDA 1993-08-09 15:00:00 TS 13.5420 -106.608 main 631 627 P_____________ EP071993 13.5420 -106.608 TD 32 1006 -1 16 281
1993221N13256 1993 50 EP MM FERNANDA 1993-08-09 18:00:00 TS 13.7000 -107.400 35 1005 hurdat_epa main 662 662 O_____________ hurdat_epa EP071993 13.7000 -107.400 TS 35 1005 0 16 281
1993221N13256 1993 50 EP MM FERNANDA 1993-08-09 21:00:00 TS 13.8572 -108.235 main 695 695 P_____________ EP071993 13.8572 -108.235 TS 40 1002 0 17 280
1993221N13256 1993 50 EP MM FERNANDA 1993-08-10 00:00:00 TS 14.0000 -109.100 45 1000 hurdat_epa main 740 740 O_____________ hurdat_epa EP071993 14.0000 -109.100 TS 45 1000 0 17 278
1993221N13256 1993 50 EP MM FERNANDA 1993-08-10 03:00:00 TS 14.1071 -109.978 main 795 795 P_____________ EP071993 14.1071 -109.978 TS 50 997 0 18 277
1993221N13256 1993 50 EP MM FERNANDA 1993-08-10 06:00:00 TS 14.2000 -110.900 55 994 hurdat_epa main 856 856 O_____________ hurdat_epa EP071993 14.2000 -110.900 TS 55 994 0 19 277
1993221N13256 1993 50 EP MM FERNANDA 1993-08-10 09:00:00 TS 14.3223 -111.885 main 925 925 P_____________ EP071993 14.3223 -111.885 TS 57 991 0 20 276
1993221N13256 1993 50 EP MM FERNANDA 1993-08-10 12:00:00 TS 14.4000 -112.900 60 988 hurdat_epa main 998 998 O_____________ hurdat_epa EP071993 14.4000 -112.900 TS 60 988 0 20 271
1993221N13256 1993 50 EP MM FERNANDA 1993-08-10 15:00:00 TS 14.3648 -113.915 main 1035 1035 P_____________ EP071993 14.3648 -113.915 TS 65 985 1 19 267
1993221N13256 1993 50 EP MM FERNANDA 1993-08-10 18:00:00 TS 14.3000 -114.900 70 982 hurdat_epa main 1091 1091 O_____________ hurdat_epa EP071993 14.3000 -114.900 HU 70 982 1 18 268
1993221N13256 1993 50 EP MM FERNANDA 1993-08-10 21:00:00 TS 14.2919 -115.807 main 1139 1139 P_____________ EP071993 14.2919 -115.807 HU 80 976 1 17 270
1993221N13256 1993 50 EP MM FERNANDA 1993-08-11 00:00:00 TS 14.3000 -116.700 90 971 hurdat_epa main 1192 1192 O_____________ hurdat_epa EP071993 14.3000 -116.700 HU 90 971 2 18 270
1993221N13256 1993 50 EP MM FERNANDA 1993-08-11 03:00:00 TS 14.2923 -117.650 main 1257 1257 P_____________ EP071993 14.2923 -117.650 HU 97 965 3 18 270
1993221N13256 1993 50 EP MM FERNANDA 1993-08-11 06:00:00 TS 14.3000 -118.600 105 960 hurdat_epa main 1320 1320 O_____________ hurdat_epa EP071993 14.3000 -118.600 HU 105 960 3 18 271
1993221N13256 1993 50 EP MM FERNANDA 1993-08-11 09:00:00 TS 14.3346 -119.508 main 1387 1387 P_____________ EP071993 14.3346 -119.508 HU 110 955 3 17 273
1993221N13256 1993 50 EP MM FERNANDA 1993-08-11 12:00:00 TS 14.4000 -120.400 115 950 hurdat_epa main 1442 1442 O_____________ hurdat_epa EP071993 14.4000 -120.400 HU 115 950 4 18 275
1993221N13256 1993 50 EP MM FERNANDA 1993-08-11 15:00:00 TS 14.4922 -121.307 main 1492 1492 P_____________ EP071993 14.4922 -121.307 HU 117 946 4 18 277
1993221N13256 1993 50 EP MM FERNANDA 1993-08-11 18:00:00 TS 14.6000 -122.200 120 942 hurdat_epa main 1546 1546 O_____________ hurdat_epa EP071993 14.6000 -122.200 HU 120 942 4 17 277
1993221N13256 1993 50 EP MM FERNANDA 1993-08-11 21:00:00 TS 14.6921 -123.058 main 1603 1603 P_____________ EP071993 14.6921 -123.058 HU 122 938 4 17 277
1993221N13256 1993 50 EP MM FERNANDA 1993-08-12 00:00:00 TS 14.8000 -123.900 125 934 hurdat_epa main 1656 1656 O_____________ hurdat_epa EP071993 14.8000 -123.900 HU 125 934 4 17 278
1993221N13256 1993 50 EP MM FERNANDA 1993-08-12 03:00:00 TS 14.9347 -124.750 main 1719 1711 P_____________ EP071993 14.9347 -124.750 HU 125 934 4 17 280
1993221N13256 1993 50 EP MM FERNANDA 1993-08-12 06:00:00 TS 15.1000 -125.600 125 935 hurdat_epa main 1769 1769 O_____________ hurdat_epa EP071993 15.1000 -125.600 HU 125 935 4 17 282
1993221N13256 1993 50 EP MM FERNANDA 1993-08-12 09:00:00 TS 15.2922 -126.450 main 1824 1824 P_____________ EP071993 15.2922 -126.450 HU 125 935 4 17 284
1993221N13256 1993 50 EP MM FERNANDA 1993-08-12 12:00:00 TS 15.5000 -127.300 125 936 hurdat_epa main 1861 1861 O_____________ hurdat_epa EP071993 15.5000 -127.300 HU 125 936 4 17 284
1993221N13256 1993 50 EP MM FERNANDA 1993-08-12 15:00:00 TS 15.6921 -128.143 main 1902 1902 P_____________ EP071993 15.6921 -128.143 HU 122 938 4 17 284
1993221N13256 1993 50 EP MM FERNANDA 1993-08-12 18:00:00 TS 15.9000 -129.000 120 940 hurdat_epa main 1953 1953 O_____________ hurdat_epa EP071993 15.9000 -129.000 HU 120 940 4 17 285
1993221N13256 1993 50 EP MM FERNANDA 1993-08-12 21:00:00 TS 16.1422 -129.893 main 2007 1999 P_____________ EP071993 16.1422 -129.893 HU 117 944 4 18 286
1993221N13256 1993 50 EP MM FERNANDA 1993-08-13 00:00:00 TS 16.4000 -130.800 115 948 hurdat_epa main 2056 2056 O_____________ hurdat_epa EP071993 16.4000 -130.800 HU 115 948 4 18 286
1993221N13256 1993 50 EP MM FERNANDA 1993-08-13 03:00:00 TS 16.6572 -131.708 main 2109 2109 P_____________ EP071993 16.6572 -131.708 HU 112 950 3 18 286
1993221N13256 1993 50 EP MM FERNANDA 1993-08-13 06:00:00 TS 16.9000 -132.600 110 953 hurdat_epa main 2171 2171 O_____________ hurdat_epa EP071993 16.9000 -132.600 HU 110 953 3 17 285
1993221N13256 1993 50 EP MM FERNANDA 1993-08-13 09:00:00 TS 17.1070 -133.450 main 2235 2175 P_____________ EP071993 17.1070 -133.450 HU 105 955 3 17 284
1993221N13256 1993 50 EP MM FERNANDA 1993-08-13 12:00:00 TS 17.3000 -134.300 100 958 hurdat_epa main 2175 2088 O_____________ hurdat_epa EP071993 17.3000 -134.300 HU 100 958 3 17 283
1993221N13256 1993 50 EP MM FERNANDA 1993-08-13 15:00:00 TS 17.4997 -135.193 main 2077 1990 P_____________ EP071993 17.4997 -135.193 HU 97 961 3 18 283
1993221N13256 1993 50 EP MM FERNANDA 1993-08-13 18:00:00 TS 17.7000 -136.100 95 965 hurdat_epa main 1980 1882 O_____________ hurdat_epa EP071993 17.7000 -136.100 HU 95 965 2 18 283
1993221N13256 1993 50 EP MM FERNANDA 1993-08-13 21:00:00 TS 17.9147 -137.007 main 1882 1785 P_____________ EP071993 17.9147 -137.007 HU 92 967 2 18 283
1993221N13256 1993 50 EP MM FERNANDA 1993-08-14 00:00:00 TS 18.1000 -137.900 90 970 hurdat_epa main 1785 1699 O_____________ hurdat_epa EP071993 18.1000 -137.900 HU 90 970 2 17 280
1993221N13256 1993 50 EP MM FERNANDA 1993-08-14 03:00:00 TS 18.2071 -138.765 main 1689 1604 P_____________ EP071993 18.2071 -138.765 HU 87 971 2 17 278
1993221N13256 1993 50 EP MM FERNANDA 1993-08-14 06:00:00 TS 18.3231 -139.631 85 973 hurdat_epa main 1604 1517 O_____________ hurdat_epa EP071993 18.3000 -139.600 HU 85 973 2 16 280
1993221N13256 1993 50 EP CP FERNANDA 1993-08-14 09:00:00 TS 18.4910 -140.432 main 1517 1432 P_____________ EP071993 18.4645 -140.400 HU 82 974 1 15 281
1993221N13256 1993 50 EP CP FERNANDA 1993-08-14 12:00:00 TS 18.6200 -141.220 80 976 hurdat_epa main 1432 1348 O_____________ hurdat_epa EP071993 18.6000 -141.200 HU 80 976 1 16 275
1993221N13256 1993 50 EP CP FERNANDA 1993-08-14 15:00:00 TS 18.6376 -142.073 main 1338 1265 P_____________ EP071993 18.6002 -142.081 HU 77 975 1 16 271
1993221N13256 1993 50 EP CP FERNANDA 1993-08-14 18:00:00 TS 18.6500 -142.875 75 974 hurdat_epa main 1253 1190 O_____________ hurdat_epa EP071993 18.6000 -142.900 HU 75 974 1 14 275
1993221N13256 1993 50 EP CP FERNANDA 1993-08-14 21:00:00 TS 18.7538 -143.516 main 1189 1125 P_____________ EP071993 18.7268 -143.530 HU 75 976 1 12 282
1993221N13256 1993 50 EP CP FERNANDA 1993-08-15 00:00:00 TS 18.9000 -144.100 75 979 hurdat_epa main 1125 1061 O_____________ hurdat_epa EP071993 18.9000 -144.100 HU 75 979 1 12 284
1993221N13256 1993 50 EP CP FERNANDA 1993-08-15 03:00:00 TS 19.0403 -144.723 main 1061 997 P_____________ EP071993 19.0422 -144.728 HU 75 979 1 12 284
1993221N13256 1993 50 EP CP FERNANDA 1993-08-15 06:00:00 TS 19.2000 -145.375 75 979 hurdat_epa main 986 912 O_____________ hurdat_epa EP071993 19.2000 -145.400 HU 75 979 1 13 285
1993221N13256 1993 50 EP CP FERNANDA 1993-08-15 09:00:00 TS 19.3801 -146.097 main 912 838 P_____________ EP071993 19.3927 -146.165 HU 75 979 1 14 286
1993221N13256 1993 50 EP CP FERNANDA 1993-08-15 12:00:00 TS 19.5750 -146.800 75 979 hurdat_epa main 838 775 O_____________ hurdat_epa EP071993 19.6000 -146.900 HU 75 979 1 13 288
1993221N13256 1993 50 EP CP FERNANDA 1993-08-15 15:00:00 TS 19.7729 -147.416 main 775 723 P_____________ EP071993 19.7997 -147.503 HU 82 977 1 12 290
1993221N13256 1993 50 EP CP FERNANDA 1993-08-15 18:00:00 TS 19.9750 -147.950 90 975 hurdat_epa main 724 673 O_____________ hurdat_epa EP071993 20.0000 -148.000 HU 90 975 2 10 293
1993221N13256 1993 50 EP CP FERNANDA 1993-08-15 21:00:00 TS 20.1748 -148.416 main 673 633 P_____________ EP071993 20.1997 -148.423 HU 90 975 2 9 296
1993221N13256 1993 50 EP CP FERNANDA 1993-08-16 00:00:00 TS 20.3750 -148.825 90 976 hurdat_epa main 635 595 O_____________ hurdat_epa EP071993 20.4000 -148.800 HU 90 976 2 9 298
1993221N13256 1993 50 EP CP FERNANDA 1993-08-16 03:00:00 TS 20.5806 -149.241 main 597 561 P_____________ EP071993 20.6075 -149.222 HU 90 975 2 8 299
1993221N13256 1993 50 EP CP FERNANDA 1993-08-16 06:00:00 TS 20.7750 -149.600 90 975 hurdat_epa main 561 534 O_____________ hurdat_epa EP071993 20.8000 -149.600 HU 90 975 2 7 301
1993221N13256 1993 50 EP CP FERNANDA 1993-08-16 09:00:00 TS 20.9374 -149.878 main 534 521 P_____________ EP071993 20.9499 -149.880 HU 90 976 2 6 305
1993221N13256 1993 50 EP CP FERNANDA 1993-08-16 12:00:00 TS 21.1000 -150.100 90 977 hurdat_epa main 521 506 O_____________ hurdat_epa EP071993 21.1000 -150.100 HU 90 977 2 6 311
1993221N13256 1993 50 EP CP FERNANDA 1993-08-16 15:00:00 TS 21.3019 -150.322 main 510 495 P_____________ EP071993 21.3000 -150.322 HU 90 977 2 5 317
1993221N13256 1993 50 EP CP FERNANDA 1993-08-16 18:00:00 TS 21.5000 -150.500 90 977 hurdat_epa main 500 496 O_____________ hurdat_epa EP071993 21.5000 -150.500 HU 90 977 2 4 322
1993221N13256 1993 50 EP CP FERNANDA 1993-08-16 21:00:00 TS 21.6500 -150.613 main 496 492 P_____________ EP071993 21.6500 -150.615 HU 85 978 2 4 329
1993221N13256 1993 50 EP CP FERNANDA 1993-08-17 00:00:00 TS 21.8000 -150.700 80 980 hurdat_epa main 498 495 O_____________ hurdat_epa EP071993 21.8000 -150.700 HU 80 980 1 4 332
1993221N13256 1993 50 EP CP FERNANDA 1993-08-17 03:00:00 TS 21.9756 -150.799 main 501 498 P_____________ EP071993 21.9775 -150.785 HU 77 980 1 5 332
1993221N13256 1993 50 EP CP FERNANDA 1993-08-17 06:00:00 TS 22.2000 -150.925 75 981 hurdat_epa main 505 496 O_____________ hurdat_epa EP071993 22.2000 -150.900 HU 75 981 1 6 331
1993221N13256 1993 50 EP CP FERNANDA 1993-08-17 09:00:00 TS 22.4844 -151.107 main 506 502 P_____________ EP071993 22.4701 -151.092 HU 70 983 1 7 331
1993221N13256 1993 50 EP CP FERNANDA 1993-08-17 12:00:00 TS 22.8250 -151.300 65 985 hurdat_epa main 509 509 O_____________ hurdat_epa EP071993 22.8000 -151.300 HU 65 985 1 8 335
1993221N13256 1993 50 EP CP FERNANDA 1993-08-17 15:00:00 TS 23.2125 -151.471 main 523 523 P_____________ EP071993 23.2000 -151.472 HU 60 987 0 8 340
1993221N13256 1993 50 EP CP FERNANDA 1993-08-17 18:00:00 TS 23.6000 -151.600 55 989 hurdat_epa main 547 547 O_____________ hurdat_epa EP071993 23.6000 -151.600 TS 55 989 0 7 346
1993221N13256 1993 50 EP CP FERNANDA 1993-08-17 21:00:00 TS 23.9181 -151.658 main 561 561 P_____________ EP071993 23.9075 -151.658 TS 52 991 0 6 352
1993221N13256 1993 50 EP CP FERNANDA 1993-08-18 00:00:00 TS 24.2250 -151.700 50 993 hurdat_epa main 582 582 O_____________ hurdat_epa EP071993 24.2000 -151.700 TS 50 993 0 7 349
1993221N13256 1993 50 EP CP FERNANDA 1993-08-18 03:00:00 TS 24.5694 -151.798 main 604 604 P_____________ EP071993 24.5425 -151.800 TS 50 994 0 7 345
1993221N13256 1993 50 EP CP FERNANDA 1993-08-18 06:00:00 TS 24.9250 -151.900 50 996 hurdat_epa main 621 621 O_____________ hurdat_epa EP071993 24.9000 -151.900 TS 50 996 0 7 348
1993221N13256 1993 50 EP CP FERNANDA 1993-08-18 09:00:00 TS 25.2637 -151.966 main 648 648 P_____________ EP071993 25.2350 -151.950 TS 50 997 0 7 351
1993221N13256 1993 50 EP CP FERNANDA 1993-08-18 12:00:00 TS 25.6250 -152.025 50 998 hurdat_epa main 674 674 O_____________ hurdat_epa EP071993 25.6000 -152.000 TS 50 998 0 7 350
1993221N13256 1993 50 EP CP FERNANDA 1993-08-18 15:00:00 TS 25.9994 -152.102 main 704 704 P_____________ EP071993 25.9975 -152.100 TS 47 999 0 9 351
1993221N13256 1993 50 EP CP FERNANDA 1993-08-18 18:00:00 TS 26.4750 -152.175 45 1000 hurdat_epa main 745 745 O_____________ hurdat_epa EP071993 26.5000 -152.200 TS 45 1000 0 12 355
1993221N13256 1993 50 EP CP FERNANDA 1993-08-18 21:00:00 TS 27.1681 -152.216 main 812 812 P_____________ EP071993 27.2225 -152.250 TS 42 1001 0 14 356
1993221N13256 1993 50 EP CP FERNANDA 1993-08-19 00:00:00 TS 27.8500 -152.275 40 1002 hurdat_epa main 877 877 O_____________ hurdat_epa EP071993 27.9000 -152.300 TS 40 1002 0 11 355
1993221N13256 1993 50 EP CP FERNANDA 1993-08-19 03:00:00 TS 28.2593 -152.313 main 917 917 P_____________ EP071993 28.2143 -152.297 TS 40 1002 0 8 343
1993221N13256 1993 50 EP CP FERNANDA 1993-08-19 06:00:00 TS 28.6250 -152.550 40 1003 hurdat_epa main 936 936 O_____________ hurdat_epa EP071993 28.5000 -152.500 TS 40 1003 0 11 319
1993221N13256 1993 50 EP CP FERNANDA 1993-08-19 09:00:00 TS 29.1192 -153.159 main 961 961 P_____________ EP071993 29.0219 -153.119 TS 40 1003 0 17 310
1993221N13256 1993 50 EP CP FERNANDA 1993-08-19 12:00:00 TS 29.7000 -154.000 40 1003 hurdat_epa main 985 O_____________ hurdat_epa EP071993 29.7000 -154.000 TS 40 1003 0 19 309

IBTrACS Databaseについて

本データベースは、米国NOAAが公開する1842年以降の世界の熱帯低気圧のベストトラックデータアーカイブInternational Best Track Archive for Climate Stewardship (IBTrACS)を、ウェブで閲覧しやすい形式に変換したものです。

最終更新日:2021-11-26